METAR Data
IDs: Format: Raw Decoded Include TAF

Data at: 0036 UTC 25 Apr 2019

METAR for:KAWG (Washington Muni, IA, US)
Text:KAWG 250035Z AUTO 19004KT 10SM OVC038 17/09 A2984 RMK AO2
Temperature: 17.0°C ( 63°F)
Dewpoint: 9.0°C ( 48°F) [RH = 59%]
Pressure (altimeter):29.84 inches Hg (1010.6 mb)
Winds:from the S (190 degrees) at 5 MPH (4 knots; 2.1 m/s)
Visibility:10 or more sm (16+ km)
Ceiling:3800 feet AGL
Clouds: overcast cloud deck at 3800 feet AGL
QC Flag:automated observation with no human augmentation